createdAt,value
2019-05-07T00:03:56.638Z,55.1
2019-05-07T00:14:36.748Z,56.3
2019-05-07T00:25:03.064Z,55.3
2019-05-07T00:35:13.383Z,55.2
2019-05-07T00:45:25.444Z,54.8
2019-05-07T00:56:01.826Z,54.8
2019-05-07T01:06:36.836Z,54.0
2019-05-07T01:17:12.982Z,54.4
2019-05-07T01:27:23.421Z,54.5
2019-05-07T01:38:03.086Z,54.7
2019-05-07T01:48:25.055Z,54.7
2019-05-07T01:59:02.485Z,55.2
2019-05-07T02:09:42.570Z,55.7
2019-05-07T02:20:32.089Z,55.5
2019-05-07T02:31:10.046Z,55.4
2019-05-07T02:41:35.450Z,55.1
2019-05-07T02:52:23.882Z,55.0
2019-05-07T03:02:46.203Z,55.0
2019-05-07T03:13:33.998Z,55.3
2019-05-07T03:24:47.232Z,54.9
2019-05-07T03:36:16.403Z,55.0
2019-05-07T03:47:03.294Z,54.9
2019-05-07T03:57:52.534Z,55.2
2019-05-07T04:08:37.631Z,56.3
2019-05-07T04:19:03.783Z,56.3
2019-05-07T04:29:34.959Z,56.8
2019-05-07T04:40:24.289Z,56.4
2019-05-07T04:50:43.090Z,55.3
2019-05-07T05:01:26.443Z,55.3
2019-05-07T05:11:55.117Z,55.1
2019-05-07T05:22:32.547Z,55.3
2019-05-07T05:32:46.027Z,56.0
2019-05-07T05:42:58.923Z,55.9
2019-05-07T05:53:12.329Z,56.3
2019-05-07T06:04:14.827Z,56.9
2019-05-07T06:14:27.942Z,56.4
2019-05-07T06:24:42.684Z,57.0
2019-05-07T06:38:04.135Z,56.8
2019-05-07T06:50:18.058Z,56.8
2019-05-07T07:03:14.619Z,56.5
2019-05-07T07:17:08.860Z,56.1
2019-05-07T07:28:00.091Z,55.2
2019-05-07T07:40:22.376Z,54.5
2019-05-07T07:52:05.969Z,52.6
2019-05-07T08:03:44.851Z,48.9
2019-05-07T08:15:48.503Z,45.6
2019-05-07T08:28:11.967Z,43.4
2019-05-07T08:55:42.442Z,38.7
2019-05-07T09:07:42.503Z,37.7
2019-05-07T09:19:46.915Z,34.3
2019-05-07T09:31:43.196Z,35.9
2019-05-07T09:41:54.854Z,37.0
2019-05-07T09:53:51.861Z,37.1
2019-05-07T10:04:02.541Z,38.1
2019-05-07T10:14:12.752Z,39.0
2019-05-07T10:24:26.898Z,40.1
2019-05-07T10:34:42.185Z,41.0
2019-05-07T10:44:52.450Z,41.5
2019-05-07T10:56:12.893Z,42.0
2019-05-07T11:06:41.785Z,42.6
2019-05-07T11:16:53.114Z,42.4
2019-05-07T11:27:09.307Z,42.9
2019-05-07T11:37:22.960Z,44.3
2019-05-07T11:47:36.853Z,44.6
2019-05-07T12:18:08.627Z,37.9
2019-05-07T12:28:55.501Z,37.5
2019-05-07T12:39:43.040Z,37.7
2019-05-07T12:49:56.697Z,38.1
2019-05-07T13:03:03.504Z,36.8
2019-05-07T13:13:17.614Z,37.4
2019-05-07T13:25:08.129Z,37.2
2019-05-07T13:35:26.687Z,35.5
2019-05-07T13:45:41.631Z,35.2
2019-05-07T13:49:56.710Z,34.9
2019-05-07T14:00:15.222Z,34.1
2019-05-07T14:13:06.826Z,33.8
2019-05-07T15:18:32.949Z,39.8
2019-05-07T15:29:57.725Z,40.1
2019-05-07T15:40:11.410Z,40.6
2019-05-07T15:54:34.875Z,41.3
2019-05-07T16:04:49.002Z,41.1
2019-05-07T16:15:03.566Z,41.2
2019-05-07T16:25:22.352Z,41.9
2019-05-07T16:35:32.059Z,41.4
2019-05-07T16:45:42.895Z,41.1
2019-05-07T16:55:57.770Z,41.3
2019-05-07T17:20:32.497Z,42.0
2019-05-07T17:30:42.365Z,42.3
2019-05-07T17:41:09.148Z,42.7
2019-05-07T17:51:09.676Z,42.6
2019-05-07T18:01:54.186Z,43.0
2019-05-07T18:12:40.155Z,43.1
2019-05-07T18:24:11.271Z,43.6
2019-05-07T19:42:58.968Z,43.3
2019-05-07T19:53:12.659Z,43.9
2019-05-07T20:03:59.558Z,45.1
2019-05-07T20:14:54.657Z,45.5
2019-05-07T20:28:21.764Z,46.1
2019-05-07T20:38:36.943Z,46.4
2019-05-07T20:49:23.503Z,48.0
2019-05-07T20:59:37.146Z,48.3
2019-05-07T21:10:23.723Z,48.9
2019-05-07T21:21:42.149Z,48.7
2019-05-07T21:31:54.476Z,49.4
2019-05-07T21:42:08.468Z,49.3
2019-05-07T21:52:22.253Z,49.6
2019-05-07T22:02:36.336Z,50.0
2019-05-07T22:12:51.978Z,50.3
2019-05-07T22:23:04.700Z,50.7
2019-05-07T22:33:25.078Z,51.0
2019-05-07T22:43:39.306Z,51.2
2019-05-07T22:53:53.541Z,50.9
2019-05-07T23:04:07.820Z,51.2
2019-05-07T23:14:22.774Z,51.0
2019-05-07T23:24:34.559Z,51.2
2019-05-07T23:35:22.102Z,52.0
2019-05-07T23:45:31.531Z,52.0
2019-05-07T23:55:45.882Z,51.5
